createdAt,value
2023-05-22T00:01:19.387Z,3.20
2023-05-22T00:03:47.045Z,3.20
2023-05-22T00:06:15.112Z,3.13
2023-05-22T00:08:42.452Z,3.33
2023-05-22T00:11:09.778Z,3.50
2023-05-22T00:13:37.138Z,3.05
2023-05-22T00:16:04.517Z,4.03
2023-05-22T00:18:32.691Z,2.78
2023-05-22T00:21:00.006Z,3.20
2023-05-22T00:23:28.340Z,3.92
2023-05-22T00:25:55.689Z,3.40
2023-05-22T00:28:23.118Z,2.90
2023-05-22T00:30:50.452Z,2.47
2023-05-22T00:33:17.826Z,2.90
2023-05-22T00:35:45.144Z,2.88
2023-05-22T00:38:14.209Z,2.47
2023-05-22T00:40:41.895Z,3.45
2023-05-22T00:43:09.802Z,4.05
2023-05-22T00:45:37.122Z,3.03
2023-05-22T00:48:04.590Z,3.53
2023-05-22T00:50:31.936Z,3.67
2023-05-22T00:52:59.250Z,3.00
2023-05-22T00:55:26.563Z,3.00
2023-05-22T00:57:53.995Z,3.10
2023-05-22T01:00:23.750Z,3.30
2023-05-22T01:02:51.722Z,3.95
2023-05-22T01:05:19.093Z,3.42
2023-05-22T01:07:46.600Z,3.63
2023-05-22T01:10:14.001Z,3.10
2023-05-22T01:12:41.350Z,3.70
2023-05-22T01:15:09.019Z,3.50
2023-05-22T01:17:37.557Z,3.05
2023-05-22T01:20:07.487Z,3.50
2023-05-22T01:22:36.268Z,3.60
2023-05-22T01:25:04.423Z,3.10
2023-05-22T01:27:35.271Z,3.85
2023-05-22T01:30:02.990Z,3.33
2023-05-22T01:32:30.546Z,3.20
2023-05-22T01:34:57.988Z,3.63
2023-05-22T01:37:25.417Z,3.28
2023-05-22T01:39:53.076Z,3.40
2023-05-22T01:42:20.398Z,3.47
2023-05-22T01:44:47.770Z,3.58
2023-05-22T01:47:16.925Z,3.47
2023-05-22T01:49:44.223Z,3.53
2023-05-22T01:52:12.345Z,3.40
2023-05-22T01:54:39.976Z,3.50
2023-05-22T01:57:07.286Z,3.50
2023-05-22T01:59:35.209Z,3.83
2023-05-22T02:02:02.544Z,3.80
2023-05-22T02:04:29.900Z,3.30
2023-05-22T02:06:57.144Z,3.35
2023-05-22T02:09:25.695Z,3.20
2023-05-22T02:11:53.048Z,3.67
2023-05-22T02:14:20.354Z,4.22
2023-05-22T02:16:47.959Z,3.83
2023-05-22T02:19:15.479Z,3.65
2023-05-22T02:21:43.629Z,3.90
2023-05-22T02:24:11.225Z,3.40
2023-05-22T02:26:39.815Z,4.15
2023-05-22T02:29:07.360Z,3.40
2023-05-22T02:31:35.376Z,4.15
2023-05-22T02:34:05.426Z,3.85
2023-05-22T02:36:33.507Z,3.55
2023-05-22T02:39:00.913Z,3.40
2023-05-22T02:41:28.394Z,3.85
2023-05-22T02:43:56.011Z,3.53
2023-05-22T02:46:25.454Z,4.00
2023-05-22T02:48:53.268Z,4.30
2023-05-22T02:51:20.619Z,3.60
2023-05-22T02:53:47.941Z,3.80
2023-05-22T02:56:15.930Z,3.72
2023-05-22T02:58:43.315Z,3.47
2023-05-22T03:01:13.714Z,3.90
2023-05-22T03:03:41.668Z,4.13
2023-05-22T03:06:10.515Z,4.72
2023-05-22T03:08:41.671Z,5.38
2023-05-22T03:11:09.102Z,3.95
2023-05-22T03:13:36.682Z,4.80
2023-05-22T03:16:04.231Z,4.57
2023-05-22T03:18:32.523Z,4.32
2023-05-22T03:21:00.062Z,3.85
2023-05-22T03:23:27.432Z,4.40
2023-05-22T03:25:54.942Z,4.47
2023-05-22T03:28:25.928Z,4.30
2023-05-22T03:30:53.713Z,4.93
2023-05-22T03:33:26.120Z,4.45
2023-05-22T03:35:53.899Z,4.47
2023-05-22T03:38:21.921Z,3.78
2023-05-22T03:40:49.250Z,4.70
2023-05-22T03:43:16.622Z,5.18
2023-05-22T03:45:44.403Z,3.95
2023-05-22T03:48:12.754Z,3.97
2023-05-22T03:50:40.663Z,4.20
2023-05-22T03:53:08.189Z,4.78
2023-05-22T03:55:35.910Z,4.65
2023-05-22T03:58:03.650Z,4.55
2023-05-22T04:00:31.904Z,4.88
2023-05-22T04:02:59.265Z,4.88
2023-05-22T04:05:26.730Z,5.22
2023-05-22T04:07:54.206Z,4.13
2023-05-22T04:10:23.513Z,3.85
2023-05-22T04:12:52.099Z,4.13
2023-05-22T04:15:19.519Z,4.40
2023-05-22T04:17:47.480Z,4.53
2023-05-22T04:20:14.913Z,4.38
2023-05-22T04:22:42.223Z,4.25
2023-05-22T04:25:10.395Z,3.97
2023-05-22T04:27:38.167Z,3.95
2023-05-22T04:30:05.599Z,4.47
2023-05-22T04:32:32.988Z,4.25
2023-05-22T04:35:02.245Z,3.50
2023-05-22T04:37:31.800Z,3.67
2023-05-22T04:40:05.873Z,3.88
2023-05-22T04:42:34.582Z,4.22
2023-05-22T04:45:01.909Z,3.83
2023-05-22T04:47:31.882Z,3.92
2023-05-22T04:50:04.518Z,4.55
2023-05-22T04:52:31.840Z,4.43
2023-05-22T04:55:00.916Z,4.50
2023-05-22T04:57:29.825Z,4.57
2023-05-22T04:59:57.715Z,6.13
2023-05-22T05:02:25.320Z,5.32
2023-05-22T05:04:53.295Z,5.85
2023-05-22T05:07:21.762Z,5.05
2023-05-22T05:09:49.084Z,5.95
2023-05-22T05:12:16.771Z,5.05
2023-05-22T05:14:44.059Z,4.93
2023-05-22T05:17:15.672Z,5.45
2023-05-22T05:19:43.034Z,4.85
2023-05-22T05:22:10.574Z,5.88
2023-05-22T05:24:38.327Z,4.13
2023-05-22T05:27:05.868Z,5.07
2023-05-22T05:29:33.461Z,5.35
2023-05-22T05:32:06.028Z,5.13
2023-05-22T05:34:53.770Z,5.55
2023-05-22T05:37:26.160Z,5.53
2023-05-22T05:39:56.468Z,5.30
2023-05-22T05:42:24.008Z,4.80
2023-05-22T05:44:53.672Z,5.18
2023-05-22T05:47:24.342Z,4.82
2023-05-22T05:49:52.142Z,5.53
2023-05-22T05:52:19.978Z,5.20
2023-05-22T05:54:48.747Z,4.82
2023-05-22T05:57:20.763Z,6.95
2023-05-22T05:59:48.272Z,4.45
2023-05-22T06:02:38.419Z,4.18
2023-05-22T06:05:09.201Z,3.80
2023-05-22T06:07:39.907Z,4.40
2023-05-22T06:10:09.500Z,4.40
2023-05-22T06:12:57.195Z,5.20
2023-05-22T06:15:25.175Z,4.32
2023-05-22T06:17:52.864Z,3.97
2023-05-22T06:20:20.864Z,4.18
2023-05-22T06:22:48.371Z,4.40
2023-05-22T06:25:15.878Z,3.80
2023-05-22T06:27:43.337Z,4.55
2023-05-22T06:30:10.832Z,4.57
2023-05-22T06:32:40.127Z,4.10
2023-05-22T06:35:08.340Z,5.28
2023-05-22T06:37:36.808Z,5.07
2023-05-22T06:40:06.193Z,4.40
2023-05-22T06:42:49.053Z,3.83
2023-05-22T06:45:41.594Z,3.63
2023-05-22T06:48:24.244Z,4.00
2023-05-22T06:51:21.121Z,4.55
2023-05-22T06:53:52.022Z,3.38
2023-05-22T06:56:24.923Z,3.78
2023-05-22T06:59:02.619Z,4.43
2023-05-22T07:01:49.475Z,3.75
2023-05-22T07:04:21.910Z,4.63
2023-05-22T07:07:01.281Z,4.80
2023-05-22T07:09:29.407Z,4.25
2023-05-22T07:11:56.755Z,3.92
2023-05-22T07:14:24.719Z,4.40
2023-05-22T07:16:52.426Z,4.22
2023-05-22T07:19:26.680Z,4.50
2023-05-22T07:21:56.456Z,4.72
2023-05-22T07:24:23.862Z,4.30
2023-05-22T07:26:51.173Z,4.43
2023-05-22T07:29:18.571Z,4.57
2023-05-22T07:31:49.562Z,4.20
2023-05-22T07:34:17.028Z,4.32
2023-05-22T07:36:45.602Z,3.97
2023-05-22T07:39:13.046Z,4.32
2023-05-22T07:41:41.204Z,4.38
2023-05-22T07:44:11.846Z,4.65
2023-05-22T07:46:39.186Z,4.40
2023-05-22T07:49:19.785Z,4.68
2023-05-22T07:51:47.820Z,4.50
2023-05-22T07:54:16.704Z,4.07
2023-05-22T07:56:46.210Z,3.80
2023-05-22T07:59:15.383Z,4.38
2023-05-22T08:01:42.779Z,3.90
2023-05-22T08:04:10.305Z,3.58
2023-05-22T08:06:37.797Z,3.38
2023-05-22T08:09:05.212Z,3.47
2023-05-22T08:11:34.235Z,3.22
2023-05-22T08:14:01.744Z,3.53
2023-05-22T08:16:31.447Z,3.40
2023-05-22T08:18:58.915Z,4.20
2023-05-22T08:21:26.219Z,3.63
2023-05-22T08:23:53.519Z,3.70
2023-05-22T08:26:20.922Z,3.78
2023-05-22T08:28:48.244Z,3.67
2023-05-22T08:31:15.668Z,4.22
2023-05-22T08:33:43.007Z,4.07
2023-05-22T08:36:10.373Z,3.90
2023-05-22T08:38:37.708Z,3.58
2023-05-22T08:41:05.012Z,3.85
2023-05-22T08:43:32.319Z,3.70
2023-05-22T08:45:59.593Z,3.65
2023-05-22T08:48:27.202Z,3.13
2023-05-22T08:50:58.323Z,3.72
2023-05-22T08:53:26.663Z,3.58
2023-05-22T08:55:53.921Z,3.25
2023-05-22T08:58:21.395Z,3.00
2023-05-22T09:00:48.666Z,3.28
2023-05-22T09:03:16.194Z,3.17
2023-05-22T09:05:43.597Z,2.53
2023-05-22T09:08:19.608Z,3.05
2023-05-22T09:10:48.504Z,3.85
2023-05-22T09:13:19.385Z,3.17
2023-05-22T09:15:46.692Z,3.03
2023-05-22T09:18:14.193Z,2.67
2023-05-22T09:20:41.943Z,3.30
2023-05-22T09:23:09.486Z,2.85
2023-05-22T09:25:36.854Z,4.28
2023-05-22T09:28:04.107Z,2.92
2023-05-22T09:30:31.483Z,2.92
2023-05-22T09:32:58.803Z,3.08
2023-05-22T09:35:27.894Z,3.22
2023-05-22T09:37:55.207Z,3.22
2023-05-22T09:40:22.499Z,2.83
2023-05-22T09:42:49.787Z,3.35
2023-05-22T09:45:17.077Z,2.92
2023-05-22T09:47:46.208Z,2.80
2023-05-22T09:50:13.628Z,3.33
2023-05-22T09:52:40.883Z,3.58
2023-05-22T09:55:08.837Z,3.35
2023-05-22T09:57:36.363Z,3.47
2023-05-22T10:00:04.639Z,4.25
2023-05-22T10:02:39.019Z,3.30
2023-05-22T10:05:06.815Z,3.58
2023-05-22T10:07:34.070Z,3.65
2023-05-22T10:10:01.397Z,3.92
2023-05-22T10:12:28.672Z,3.08
2023-05-22T10:14:56.049Z,3.30
2023-05-22T10:17:23.347Z,3.10
2023-05-22T10:19:51.171Z,3.35
2023-05-22T10:22:20.993Z,3.58
2023-05-22T10:24:48.787Z,3.45
2023-05-22T10:27:16.161Z,3.10
2023-05-22T10:29:43.557Z,3.70
2023-05-22T10:32:10.848Z,3.17
2023-05-22T10:34:46.663Z,3.22
2023-05-22T10:37:21.679Z,2.97
2023-05-22T10:39:49.423Z,3.90
2023-05-22T10:42:16.777Z,3.60
2023-05-22T10:44:44.114Z,3.20
2023-05-22T10:47:13.426Z,3.00
2023-05-22T10:49:40.825Z,3.65
2023-05-22T10:52:08.117Z,3.53
2023-05-22T10:54:35.669Z,3.40
2023-05-22T10:57:02.976Z,3.30
2023-05-22T10:59:30.325Z,3.20
2023-05-22T11:01:57.579Z,3.33
2023-05-22T11:04:25.086Z,3.35
2023-05-22T11:06:54.377Z,3.30
2023-05-22T11:09:24.798Z,3.72
2023-05-22T11:11:52.098Z,3.05
2023-05-22T11:14:19.381Z,3.10
2023-05-22T11:16:46.702Z,3.08
2023-05-22T11:19:23.474Z,3.40
2023-05-22T11:21:51.544Z,2.70
2023-05-22T11:24:18.990Z,3.20
2023-05-22T11:26:46.433Z,2.88
2023-05-22T11:29:14.179Z,2.88
2023-05-22T11:31:41.530Z,5.00
2023-05-22T11:34:08.801Z,3.45
2023-05-22T11:36:36.137Z,2.83
2023-05-22T11:39:03.431Z,2.72
2023-05-22T11:41:32.474Z,3.10
2023-05-22T11:44:00.851Z,2.78
2023-05-22T11:46:30.296Z,3.45
2023-05-22T11:48:57.544Z,2.83
2023-05-22T11:51:24.968Z,2.85
2023-05-22T11:53:52.336Z,4.05
2023-05-22T11:56:19.618Z,2.70
2023-05-22T11:58:46.903Z,3.20
2023-05-22T12:01:14.223Z,3.08
2023-05-22T12:03:42.185Z,2.90
2023-05-22T12:06:09.579Z,3.15
2023-05-22T12:08:36.904Z,3.15
2023-05-22T12:11:04.197Z,3.40
2023-05-22T12:13:31.544Z,2.63
2023-05-22T12:16:00.366Z,3.67
2023-05-22T12:18:27.829Z,3.15
2023-05-22T12:20:56.574Z,2.97
2023-05-22T12:23:23.888Z,3.05
2023-05-22T12:25:51.276Z,3.00
2023-05-22T12:28:18.544Z,4.32
2023-05-22T12:30:46.680Z,3.17
2023-05-22T12:33:14.937Z,3.33
2023-05-22T12:35:42.469Z,3.40
2023-05-22T12:38:09.770Z,3.00
2023-05-22T12:40:37.150Z,3.33
2023-05-22T12:43:04.575Z,3.50
2023-05-22T12:45:31.882Z,4.47
2023-05-22T12:47:59.210Z,3.28
2023-05-22T12:50:27.073Z,2.95
2023-05-22T12:52:54.397Z,2.88
2023-05-22T12:55:21.669Z,2.80
2023-05-22T12:57:49.042Z,2.70
2023-05-22T13:00:16.906Z,3.25
2023-05-22T13:02:44.243Z,3.22
2023-05-22T13:05:11.743Z,3.50
2023-05-22T13:07:39.041Z,3.78
2023-05-22T13:10:06.745Z,3.58
2023-05-22T13:12:34.156Z,3.22
2023-05-22T13:15:01.493Z,3.38
2023-05-22T13:17:28.883Z,3.00
2023-05-22T13:19:56.205Z,3.97
2023-05-22T13:22:23.798Z,3.42
2023-05-22T13:24:51.186Z,2.90
2023-05-22T13:27:18.501Z,2.40
2023-05-22T13:29:45.752Z,2.90
2023-05-22T13:32:13.437Z,3.28
2023-05-22T13:34:40.816Z,3.05
2023-05-22T13:37:08.376Z,3.45
2023-05-22T13:39:35.736Z,3.10
2023-05-22T13:42:03.104Z,3.13
2023-05-22T13:44:30.430Z,2.50
2023-05-22T13:46:57.815Z,2.97
2023-05-22T13:49:25.079Z,3.10
2023-05-22T13:51:52.456Z,3.08
2023-05-22T13:54:19.823Z,2.78
2023-05-22T13:56:47.171Z,2.95
2023-05-22T13:59:14.496Z,3.00
2023-05-22T14:01:42.133Z,2.80
2023-05-22T14:04:09.399Z,3.17
2023-05-22T14:06:37.859Z,3.70
2023-05-22T14:09:07.281Z,2.92
2023-05-22T14:11:34.579Z,3.05
2023-05-22T14:14:01.866Z,2.95
2023-05-22T14:16:29.198Z,3.00
2023-05-22T14:18:56.575Z,3.00
2023-05-22T14:21:23.969Z,2.95
2023-05-22T14:23:51.440Z,2.83
2023-05-22T14:26:18.804Z,3.55
2023-05-22T14:28:46.192Z,3.47
2023-05-22T14:31:13.499Z,3.45
2023-05-22T14:33:40.685Z,3.35
2023-05-22T14:36:08.020Z,4.30
2023-05-22T14:38:35.346Z,3.20
2023-05-22T14:41:02.747Z,3.10
2023-05-22T14:43:29.993Z,3.88
2023-05-22T14:45:58.252Z,4.15
2023-05-22T14:48:26.574Z,2.90
2023-05-22T14:50:54.205Z,3.30
2023-05-22T14:53:21.403Z,3.40
2023-05-22T14:55:48.722Z,4.80
2023-05-22T14:58:16.568Z,3.72
2023-05-22T15:00:45.639Z,4.00
2023-05-22T15:03:13.540Z,3.58
2023-05-22T15:05:41.133Z,4.30
2023-05-22T15:08:08.469Z,3.72
2023-05-22T15:10:35.755Z,3.97
2023-05-22T15:13:03.112Z,3.95
2023-05-22T15:15:30.515Z,3.53
2023-05-22T15:18:00.766Z,3.20
2023-05-22T15:20:28.415Z,3.90
2023-05-22T15:22:55.662Z,4.68
2023-05-22T15:25:22.970Z,4.35
2023-05-22T15:27:50.269Z,3.28
2023-05-22T15:30:17.703Z,3.88
2023-05-22T15:32:45.527Z,4.05
2023-05-22T15:35:16.043Z,4.43
2023-05-22T15:37:43.289Z,3.03
2023-05-22T15:40:11.334Z,3.08
2023-05-22T15:42:38.851Z,3.15
2023-05-22T15:45:06.109Z,3.95
2023-05-22T15:47:33.899Z,2.80
2023-05-22T15:50:01.254Z,2.90
2023-05-22T15:52:28.520Z,2.88
2023-05-22T15:54:57.221Z,2.72
2023-05-22T15:57:24.559Z,3.20
2023-05-22T15:59:51.836Z,2.58
2023-05-22T16:02:19.180Z,2.33
2023-05-22T16:04:46.540Z,2.78
2023-05-22T16:07:13.984Z,3.00
2023-05-22T16:09:43.315Z,2.65
2023-05-22T16:12:10.733Z,3.50
2023-05-22T16:14:39.849Z,2.60
2023-05-22T16:17:07.405Z,2.78
2023-05-22T16:19:34.904Z,2.55
2023-05-22T16:22:03.042Z,3.00
2023-05-22T16:24:30.302Z,3.85
2023-05-22T16:26:57.526Z,3.25
2023-05-22T16:29:24.942Z,2.60
2023-05-22T16:31:52.415Z,2.35
2023-05-22T16:34:19.721Z,2.60
2023-05-22T16:36:47.142Z,2.67
2023-05-22T16:39:15.609Z,2.50
2023-05-22T16:41:42.905Z,2.30
2023-05-22T16:44:10.242Z,2.40
2023-05-22T16:46:37.534Z,3.08
2023-05-22T16:49:04.846Z,2.83
2023-05-22T16:51:32.201Z,3.00
2023-05-22T16:53:59.521Z,3.17
2023-05-22T16:56:27.310Z,2.55
2023-05-22T16:58:54.519Z,3.00
2023-05-22T17:01:22.222Z,3.20
2023-05-22T17:03:49.752Z,5.25
2023-05-22T17:06:20.124Z,3.10
2023-05-22T17:08:48.279Z,2.75
2023-05-22T17:11:15.475Z,3.15
2023-05-22T17:13:43.543Z,2.63
2023-05-22T17:16:10.783Z,3.15
2023-05-22T17:21:20.674Z,3.90
2023-05-22T17:23:47.941Z,3.22
2023-05-22T17:26:15.571Z,3.40
2023-05-22T17:28:42.873Z,2.97
2023-05-22T17:31:10.135Z,2.88
2023-05-22T17:33:37.351Z,2.88
2023-05-22T17:36:04.659Z,2.47
2023-05-22T17:38:31.951Z,2.78
2023-05-22T17:41:00.826Z,3.08
2023-05-22T17:43:28.100Z,3.22
2023-05-22T17:45:55.405Z,2.92
2023-05-22T17:48:27.300Z,3.65
2023-05-22T17:50:54.831Z,2.80
2023-05-22T17:53:22.107Z,2.22
2023-05-22T17:55:49.466Z,2.30
2023-05-22T17:58:16.962Z,2.50
2023-05-22T18:00:45.735Z,2.80
2023-05-22T18:03:13.317Z,2.20
2023-05-22T18:05:40.926Z,2.20
2023-05-22T18:08:08.202Z,2.70
2023-05-22T18:10:35.460Z,1.80
2023-05-22T18:13:02.792Z,2.47
2023-05-22T18:15:30.141Z,2.00
2023-05-22T18:17:57.416Z,2.00
2023-05-22T18:20:24.756Z,2.00
2023-05-22T18:22:52.075Z,2.47
2023-05-22T18:25:19.387Z,1.73
2023-05-22T18:27:47.010Z,2.25
2023-05-22T18:30:14.329Z,2.35
2023-05-22T18:32:41.728Z,2.10
2023-05-22T18:35:09.144Z,2.35
2023-05-22T18:37:36.970Z,2.60
2023-05-22T18:40:06.664Z,2.58
2023-05-22T18:42:34.032Z,2.38
2023-05-22T18:45:01.332Z,2.50
2023-05-22T18:47:28.546Z,1.95
2023-05-22T18:49:55.819Z,2.35
2023-05-22T18:52:23.088Z,2.28
2023-05-22T18:54:50.544Z,2.58
2023-05-22T18:57:17.889Z,2.60
2023-05-22T18:59:46.196Z,2.63
2023-05-22T19:02:13.571Z,2.25
2023-05-22T19:04:40.919Z,2.30
2023-05-22T19:07:09.153Z,2.20
2023-05-22T19:09:36.469Z,2.63
2023-05-22T19:12:03.941Z,2.42
2023-05-22T19:14:31.460Z,2.53
2023-05-22T19:17:01.759Z,2.88
2023-05-22T19:19:29.218Z,2.72
2023-05-22T19:21:56.555Z,2.67
2023-05-22T19:24:23.850Z,2.60
2023-05-22T19:26:51.118Z,2.97
2023-05-22T19:29:18.418Z,2.72
2023-05-22T19:31:45.755Z,3.15
2023-05-22T19:34:13.296Z,2.83
2023-05-22T19:36:40.648Z,3.20
2023-05-22T19:39:10.952Z,3.38
2023-05-22T19:41:38.262Z,2.85
2023-05-22T19:44:05.804Z,2.92
2023-05-22T19:46:33.126Z,3.40
2023-05-22T19:49:00.553Z,3.70
2023-05-22T19:51:27.996Z,3.58
2023-05-22T19:53:55.247Z,3.30
2023-05-22T19:56:22.519Z,3.25
2023-05-22T19:58:49.739Z,3.42
2023-05-22T20:01:17.536Z,3.33
2023-05-22T20:03:44.929Z,3.63
2023-05-22T20:06:12.663Z,3.38
2023-05-22T20:08:41.445Z,3.20
2023-05-22T20:11:08.962Z,3.53
2023-05-22T20:13:36.161Z,3.78
2023-05-22T20:16:03.646Z,4.43
2023-05-22T20:18:32.236Z,3.50
2023-05-22T20:20:59.532Z,3.95
2023-05-22T20:23:27.002Z,4.50
2023-05-22T20:25:54.353Z,3.90
2023-05-22T20:28:21.595Z,3.88
2023-05-22T20:30:48.886Z,4.63
2023-05-22T20:33:16.745Z,4.38
2023-05-22T20:35:44.302Z,3.92
2023-05-22T20:38:14.403Z,3.97
2023-05-22T20:40:48.021Z,4.03
2023-05-22T20:43:15.345Z,4.03
2023-05-22T20:45:45.818Z,4.80
2023-05-22T20:48:13.582Z,4.28
2023-05-22T20:50:41.063Z,4.15
2023-05-22T20:53:08.556Z,4.47
2023-05-22T20:55:36.259Z,4.63
2023-05-22T20:58:03.644Z,4.25
2023-05-22T21:00:30.939Z,4.43
2023-05-22T21:02:59.683Z,5.18
2023-05-22T21:05:27.080Z,5.88
2023-05-22T21:07:54.389Z,5.45
2023-05-22T21:10:21.759Z,7.07
2023-05-22T21:12:49.069Z,4.95
2023-05-22T21:15:16.277Z,5.38
2023-05-22T21:17:43.816Z,5.25
2023-05-22T21:20:11.186Z,5.57
2023-05-22T21:22:39.098Z,5.80
2023-05-22T21:25:06.529Z,5.70
2023-05-22T21:27:33.832Z,7.03
2023-05-22T21:30:01.166Z,5.32
2023-05-22T21:32:28.434Z,5.32
2023-05-22T21:34:55.764Z,6.07
2023-05-22T21:37:23.008Z,5.90
2023-05-22T21:39:56.501Z,5.60
2023-05-22T21:42:26.214Z,5.65
2023-05-22T21:44:53.607Z,5.50
2023-05-22T21:47:20.941Z,6.30
2023-05-22T21:49:48.171Z,5.68
2023-05-22T21:52:15.604Z,6.22
2023-05-22T21:54:42.939Z,6.18
2023-05-22T21:57:10.256Z,5.85
2023-05-22T21:59:37.582Z,5.85
2023-05-22T22:02:04.863Z,6.30
2023-05-22T22:04:32.246Z,7.60
2023-05-22T22:06:59.564Z,5.90
2023-05-22T22:09:26.894Z,6.40
2023-05-22T22:11:54.224Z,6.05
2023-05-22T22:14:21.686Z,6.68
2023-05-22T22:16:50.770Z,6.45
2023-05-22T22:19:18.204Z,6.05
2023-05-22T22:21:46.187Z,6.38
2023-05-22T22:24:15.616Z,6.85
2023-05-22T22:26:42.986Z,6.45
2023-05-22T22:29:10.254Z,6.93
2023-05-22T22:31:37.660Z,5.85
2023-05-22T22:34:06.201Z,5.82
2023-05-22T22:36:33.694Z,6.18
2023-05-22T22:39:00.981Z,6.28
2023-05-22T22:41:28.391Z,6.30
2023-05-22T22:43:55.856Z,6.22
2023-05-22T22:46:23.252Z,7.13
2023-05-22T22:48:51.301Z,6.80
2023-05-22T22:51:18.695Z,6.70
2023-05-22T22:53:45.953Z,6.25
2023-05-22T22:56:13.599Z,6.07
2023-05-22T22:58:40.978Z,6.57
2023-05-22T23:01:08.313Z,8.43
2023-05-22T23:03:36.128Z,6.72
2023-05-22T23:06:03.422Z,6.25
2023-05-22T23:08:30.695Z,7.00
2023-05-22T23:10:58.500Z,7.47
2023-05-22T23:13:25.964Z,6.68
2023-05-22T23:15:53.436Z,7.53
2023-05-22T23:18:21.048Z,6.60
2023-05-22T23:20:51.368Z,6.70
2023-05-22T23:23:18.709Z,7.10
2023-05-22T23:25:45.923Z,7.03
2023-05-22T23:28:13.212Z,6.70
2023-05-22T23:30:40.510Z,7.45
2023-05-22T23:33:07.874Z,8.70
2023-05-22T23:35:35.171Z,7.40
2023-05-22T23:38:02.578Z,7.63
2023-05-22T23:40:30.025Z,6.32
2023-05-22T23:42:57.305Z,7.28
2023-05-22T23:45:24.550Z,7.53
2023-05-22T23:47:51.987Z,7.75
2023-05-22T23:50:19.290Z,7.40
2023-05-22T23:52:48.332Z,7.90
2023-05-22T23:55:15.812Z,8.32
2023-05-22T23:57:43.096Z,7.97
